sensor_id;sensor_type;location;lat;lon;timestamp;pressure;altitude;pressure_sealevel;temperature;humidity
12664;BME280;6396;58.490;15.528;2023-04-07T00:01:58;101524.66;;;-2.24;100.00
12664;BME280;6396;58.490;15.528;2023-04-07T00:04:26;101457.03;;;-2.98;100.00
12664;BME280;6396;58.490;15.528;2023-04-07T00:06:57;101635.47;;;-1.04;100.00
12664;BME280;6396;58.490;15.528;2023-04-07T00:09:25;101919.22;;;0.41;100.00
12664;BME280;6396;58.490;15.528;2023-04-07T00:11:53;101144.75;;;-4.65;100.00
12664;BME280;6396;58.490;15.528;2023-04-07T00:14:21;101109.91;;;-4.36;100.00
12664;BME280;6396;58.490;15.528;2023-04-07T00:16:48;101137.63;;;-4.70;100.00
12664;BME280;6396;58.490;15.528;2023-04-07T00:19:17;101112.69;;;-4.92;100.00
12664;BME280;6396;58.490;15.528;2023-04-07T00:21:45;101204.06;;;-4.03;100.00
12664;BME280;6396;58.490;15.528;2023-04-07T00:24:13;101118.25;;;-4.41;100.00
12664;BME280;6396;58.490;15.528;2023-04-07T00:26:43;101522.28;;;-1.98;100.00
12664;BME280;6396;58.490;15.528;2023-04-07T00:29:12;101950.50;;;0.68;100.00
12664;BME280;6396;58.490;15.528;2023-04-07T00:31:39;101070.06;;;-4.44;100.00
12664;BME280;6396;58.490;15.528;2023-04-07T00:34:09;101396.97;;;-2.50;100.00
12664;BME280;6396;58.490;15.528;2023-04-07T00:40:08;102001.59;;;0.44;100.00
12664;BME280;6396;58.490;15.528;2023-04-07T00:42:35;101256.31;;;-3.86;100.00
12664;BME280;6396;58.490;15.528;2023-04-07T00:45:04;101654.22;;;-1.33;100.00
12664;BME280;6396;58.490;15.528;2023-04-07T00:47:30;101836.53;;;-0.19;100.00
12664;BME280;6396;58.490;15.528;2023-04-07T00:49:57;101895.56;;;0.34;100.00
12664;BME280;6396;58.490;15.528;2023-04-07T00:52:24;101921.13;;;0.22;100.00
12664;BME280;6396;58.490;15.528;2023-04-07T00:54:54;101351.72;;;-2.83;100.00
12664;BME280;6396;58.490;15.528;2023-04-07T00:57:21;101761.00;;;-1.18;100.00
12664;BME280;6396;58.490;15.528;2023-04-07T00:59:48;101585.81;;;-2.04;100.00
12664;BME280;6396;58.490;15.528;2023-04-07T01:02:19;102083.75;;;0.64;100.00
12664;BME280;6396;58.490;15.528;2023-04-07T01:04:53;101356.19;;;-2.79;100.00
12664;BME280;6396;58.490;15.528;2023-04-07T01:07:25;101354.31;;;-2.83;100.00
12664;BME280;6396;58.490;15.528;2023-04-07T01:09:56;101867.00;;;0.09;100.00
12664;BME280;6396;58.490;15.528;2023-04-07T01:12:33;101755.50;;;-1.05;100.00
12664;BME280;6396;58.490;15.528;2023-04-07T01:15:08;101811.75;;;-0.35;100.00
12664;BME280;6396;58.490;15.528;2023-04-07T01:17:39;101970.47;;;0.45;100.00
12664;BME280;6396;58.490;15.528;2023-04-07T01:20:12;101653.03;;;-1.19;100.00
12664;BME280;6396;58.490;15.528;2023-04-07T01:22:42;102020.59;;;0.43;100.00
12664;BME280;6396;58.490;15.528;2023-04-07T01:25:22;101967.44;;;0.33;100.00
12664;BME280;6396;58.490;15.528;2023-04-07T01:27:59;101930.13;;;0.31;100.00
12664;BME280;6396;58.490;15.528;2023-04-07T01:30:37;101862.97;;;-0.07;100.00
12664;BME280;6396;58.490;15.528;2023-04-07T01:33:05;101833.69;;;-0.49;100.00
12664;BME280;6396;58.490;15.528;2023-04-07T01:35:34;101990.47;;;0.48;100.00
12664;BME280;6396;58.490;15.528;2023-04-07T01:38:03;101667.44;;;-1.03;100.00
12664;BME280;6396;58.490;15.528;2023-04-07T01:40:32;101775.56;;;-0.32;100.00
12664;BME280;6396;58.490;15.528;2023-04-07T01:43:00;101930.91;;;0.52;100.00
12664;BME280;6396;58.490;15.528;2023-04-07T01:45:27;101929.97;;;0.50;100.00
12664;BME280;6396;58.490;15.528;2023-04-07T01:47:58;101450.97;;;-2.36;100.00
12664;BME280;6396;58.490;15.528;2023-04-07T01:50:25;101839.47;;;-0.34;100.00
12664;BME280;6396;58.490;15.528;2023-04-07T01:52:53;101954.44;;;0.33;100.00
12664;BME280;6396;58.490;15.528;2023-04-07T01:55:22;101808.88;;;-0.64;100.00
12664;BME280;6396;58.490;15.528;2023-04-07T01:57:49;101770.78;;;-0.67;100.00
12664;BME280;6396;58.490;15.528;2023-04-07T02:00:16;101724.84;;;-0.93;100.00
12664;BME280;6396;58.490;15.528;2023-04-07T02:02:44;101198.28;;;-4.18;100.00
12664;BME280;6396;58.490;15.528;2023-04-07T02:05:18;101926.00;;;0.14;100.00
12664;BME280;6396;58.490;15.528;2023-04-07T02:07:49;101928.75;;;0.17;100.00
12664;BME280;6396;58.490;15.528;2023-04-07T02:10:21;101919.97;;;-0.09;100.00
12664;BME280;6396;58.490;15.528;2023-04-07T02:12:49;101856.06;;;-0.51;100.00
12664;BME280;6396;58.490;15.528;2023-04-07T02:15:18;101523.94;;;-2.43;100.00
12664;BME280;6396;58.490;15.528;2023-04-07T02:17:48;101844.41;;;-0.40;100.00
12664;BME280;6396;58.490;15.528;2023-04-07T02:20:19;101678.44;;;-1.53;100.00
12664;BME280;6396;58.490;15.528;2023-04-07T02:22:47;101644.03;;;-1.51;100.00
12664;BME280;6396;58.490;15.528;2023-04-07T02:25:22;101006.81;;;-5.20;100.00
12664;BME280;6396;58.490;15.528;2023-04-07T02:38:55;101948.38;;;0.11;100.00
12664;BME280;6396;58.490;15.528;2023-04-07T02:41:22;101997.66;;;0.09;100.00
12664;BME280;6396;58.490;15.528;2023-04-07T02:43:48;101937.56;;;-0.24;100.00
12664;BME280;6396;58.490;15.528;2023-04-07T02:46:15;101890.16;;;-0.20;100.00
12664;BME280;6396;58.490;15.528;2023-04-07T02:48:42;101503.44;;;-2.38;100.00
12664;BME280;6396;58.490;15.528;2023-04-07T02:51:09;101403.91;;;-2.92;100.00
12664;BME280;6396;58.490;15.528;2023-04-07T02:53:36;101735.03;;;-1.20;100.00
12664;BME280;6396;58.490;15.528;2023-04-07T02:56:04;101484.81;;;-2.93;100.00
12664;BME280;6396;58.490;15.528;2023-04-07T02:58:31;101999.56;;;0.13;100.00
12664;BME280;6396;58.490;15.528;2023-04-07T03:00:58;101992.09;;;-0.44;100.00
12664;BME280;6396;58.490;15.528;2023-04-07T03:03:25;101985.63;;;0.11;100.00
12664;BME280;6396;58.490;15.528;2023-04-07T03:05:51;101991.81;;;0.15;100.00
12664;BME280;6396;58.490;15.528;2023-04-07T03:08:18;101721.19;;;-1.42;100.00
12664;BME280;6396;58.490;15.528;2023-04-07T03:10:45;101358.47;;;-3.50;100.00
12664;BME280;6396;58.490;15.528;2023-04-07T03:13:13;101988.28;;;0.13;100.00
12664;BME280;6396;58.490;15.528;2023-04-07T03:15:43;101639.25;;;-2.26;100.00
12664;BME280;6396;58.490;15.528;2023-04-07T03:18:10;101944.09;;;0.11;100.00
12664;BME280;6396;58.490;15.528;2023-04-07T03:20:37;101996.13;;;0.14;100.00
12664;BME280;6396;58.490;15.528;2023-04-07T03:23:06;101683.31;;;-1.61;100.00
12664;BME280;6396;58.490;15.528;2023-04-07T03:25:33;101403.97;;;-3.11;100.00
12664;BME280;6396;58.490;15.528;2023-04-07T03:28:00;101647.22;;;-1.58;100.00
12664;BME280;6396;58.490;15.528;2023-04-07T03:30:28;101652.25;;;-1.61;100.00
12664;BME280;6396;58.490;15.528;2023-04-07T03:32:55;101947.25;;;-0.20;100.00
12664;BME280;6396;58.490;15.528;2023-04-07T03:35:21;101836.78;;;-0.81;100.00
12664;BME280;6396;58.490;15.528;2023-04-07T03:37:48;101585.09;;;-2.22;100.00
12664;BME280;6396;58.490;15.528;2023-04-07T03:40:15;101525.00;;;-2.58;100.00
12664;BME280;6396;58.490;15.528;2023-04-07T03:42:42;101841.22;;;-0.77;100.00
12664;BME280;6396;58.490;15.528;2023-04-07T03:45:09;101971.84;;;0.12;100.00
12664;BME280;6396;58.490;15.528;2023-04-07T03:47:37;102001.75;;;0.03;100.00
12664;BME280;6396;58.490;15.528;2023-04-07T03:50:05;101718.44;;;-1.67;100.00
12664;BME280;6396;58.490;15.528;2023-04-07T03:52:32;101719.81;;;-1.55;100.00
12664;BME280;6396;58.490;15.528;2023-04-07T03:54:59;101893.66;;;-0.84;100.00
12664;BME280;6396;58.490;15.528;2023-04-07T03:57:25;101376.09;;;-3.40;100.00
12664;BME280;6396;58.490;15.528;2023-04-07T03:59:53;101706.06;;;-1.74;100.00
12664;BME280;6396;58.490;15.528;2023-04-07T04:02:20;102024.03;;;-0.03;100.00
12664;BME280;6396;58.490;15.528;2023-04-07T04:04:48;102028.19;;;-0.08;100.00
12664;BME280;6396;58.490;15.528;2023-04-07T04:07:15;101827.84;;;-1.09;100.00
12664;BME280;6396;58.490;15.528;2023-04-07T04:09:42;101975.22;;;-0.13;100.00
12664;BME280;6396;58.490;15.528;2023-04-07T04:12:09;101989.88;;;-0.13;100.00
12664;BME280;6396;58.490;15.528;2023-04-07T04:14:35;102011.41;;;-0.16;100.00
12664;BME280;6396;58.490;15.528;2023-04-07T04:17:02;101895.03;;;-0.71;100.00
12664;BME280;6396;58.490;15.528;2023-04-07T04:19:29;101602.59;;;-2.57;100.00
12664;BME280;6396;58.490;15.528;2023-04-07T04:21:57;102003.34;;;-0.23;100.00
12664;BME280;6396;58.490;15.528;2023-04-07T04:24:24;101913.34;;;-0.68;100.00
12664;BME280;6396;58.490;15.528;2023-04-07T04:26:51;101879.25;;;-0.98;100.00
12664;BME280;6396;58.490;15.528;2023-04-07T04:29:18;101919.75;;;-0.59;100.00
12664;BME280;6396;58.490;15.528;2023-04-07T04:31:44;101399.63;;;-3.53;100.00
12664;BME280;6396;58.490;15.528;2023-04-07T04:34:11;101991.78;;;-0.09;100.00
12664;BME280;6396;58.490;15.528;2023-04-07T04:36:38;101834.19;;;-1.01;100.00
12664;BME280;6396;58.490;15.528;2023-04-07T04:39:06;101912.34;;;-0.50;100.00
12664;BME280;6396;58.490;15.528;2023-04-07T04:41:33;101936.25;;;-0.35;100.00
12664;BME280;6396;58.490;15.528;2023-04-07T04:44:00;102036.50;;;0.06;100.00
12664;BME280;6396;58.490;15.528;2023-04-07T04:46:27;101965.28;;;-0.23;100.00
12664;BME280;6396;58.490;15.528;2023-04-07T04:48:53;102036.97;;;0.18;100.00
12664;BME280;6396;58.490;15.528;2023-04-07T04:51:20;101792.03;;;-1.20;100.00
12664;BME280;6396;58.490;15.528;2023-04-07T04:53:47;102040.66;;;0.25;100.00
12664;BME280;6396;58.490;15.528;2023-04-07T04:56:15;101861.00;;;-0.58;100.00
12664;BME280;6396;58.490;15.528;2023-04-07T04:58:42;102013.19;;;0.30;100.00
12664;BME280;6396;58.490;15.528;2023-04-07T05:01:10;102042.22;;;-0.03;100.00
12664;BME280;6396;58.490;15.528;2023-04-07T05:03:37;102042.66;;;0.32;100.00
12664;BME280;6396;58.490;15.528;2023-04-07T05:06:05;101885.44;;;-0.52;100.00
12664;BME280;6396;58.490;15.528;2023-04-07T05:08:32;101870.06;;;-0.47;100.00
12664;BME280;6396;58.490;15.528;2023-04-07T05:10:59;101321.25;;;-4.34;100.00
12664;BME280;6396;58.490;15.528;2023-04-07T05:13:28;101767.88;;;-1.19;100.00
12664;BME280;6396;58.490;15.528;2023-04-07T05:15:57;101773.63;;;-0.83;100.00
12664;BME280;6396;58.490;15.528;2023-04-07T05:18:25;101955.81;;;0.00;100.00
12664;BME280;6396;58.490;15.528;2023-04-07T05:20:52;102026.25;;;-0.34;100.00
12664;BME280;6396;58.490;15.528;2023-04-07T05:23:19;101722.34;;;-1.56;100.00
12664;BME280;6396;58.490;15.528;2023-04-07T05:25:45;101932.59;;;0.05;100.00
12664;BME280;6396;58.490;15.528;2023-04-07T05:28:19;101567.81;;;-2.44;100.00
12664;BME280;6396;58.490;15.528;2023-04-07T05:31:07;101126.28;;;-5.32;100.00
12664;BME280;6396;58.490;15.528;2023-04-07T05:33:35;101807.94;;;-0.66;100.00
12664;BME280;6396;58.490;15.528;2023-04-07T05:36:02;102131.34;;;0.85;100.00
12664;BME280;6396;58.490;15.528;2023-04-07T05:38:29;101934.19;;;0.01;100.00
12664;BME280;6396;58.490;15.528;2023-04-07T05:40:55;101959.91;;;0.41;100.00
12664;BME280;6396;58.490;15.528;2023-04-07T05:43:22;102069.47;;;1.00;100.00
12664;BME280;6396;58.490;15.528;2023-04-07T05:45:55;101763.75;;;-0.69;100.00
12664;BME280;6396;58.490;15.528;2023-04-07T05:48:23;101891.50;;;-0.07;100.00
12664;BME280;6396;58.490;15.528;2023-04-07T05:50:50;101651.72;;;-1.08;100.00
12664;BME280;6396;58.490;15.528;2023-04-07T05:53:24;101751.69;;;-0.45;100.00
12664;BME280;6396;58.490;15.528;2023-04-07T05:55:50;101271.97;;;-3.41;100.00
12664;BME280;6396;58.490;15.528;2023-04-07T05:58:17;101745.03;;;-0.39;100.00
12664;BME280;6396;58.490;15.528;2023-04-07T06:00:44;101450.00;;;-2.38;100.00
12664;BME280;6396;58.490;15.528;2023-04-07T06:03:11;101552.56;;;-1.73;100.00
12664;BME280;6396;58.490;15.528;2023-04-07T06:05:39;102121.97;;;1.37;100.00
12664;BME280;6396;58.490;15.528;2023-04-07T06:08:07;101197.44;;;-3.33;100.00
12664;BME280;6396;58.490;15.528;2023-04-07T06:10:34;101795.09;;;-0.18;100.00
12664;BME280;6396;58.490;15.528;2023-04-07T06:13:01;101831.56;;;0.11;100.00
12664;BME280;6396;58.490;15.528;2023-04-07T06:15:28;101290.44;;;-3.52;100.00
12664;BME280;6396;58.490;15.528;2023-04-07T06:17:55;101541.34;;;-1.50;100.00
12664;BME280;6396;58.490;15.528;2023-04-07T06:20:22;102047.72;;;1.47;100.00
12664;BME280;6396;58.490;15.528;2023-04-07T06:22:59;101409.28;;;-2.65;100.00
12664;BME280;6396;58.490;15.528;2023-04-07T06:25:53;101192.81;;;-4.05;100.00
12664;BME280;6396;58.490;15.528;2023-04-07T06:32:06;101250.22;;;-3.25;100.00
12664;BME280;6396;58.490;15.528;2023-04-07T06:34:34;101588.53;;;-1.35;100.00
12664;BME280;6396;58.490;15.528;2023-04-07T06:37:17;101407.50;;;-2.46;100.00
12664;BME280;6396;58.490;15.528;2023-04-07T06:39:46;101901.22;;;0.96;100.00
12664;BME280;6396;58.490;15.528;2023-04-07T06:42:13;101930.41;;;0.87;100.00
12664;BME280;6396;58.490;15.528;2023-04-07T06:44:52;101546.94;;;-1.16;100.00
12664;BME280;6396;58.490;15.528;2023-04-07T06:47:53;102057.75;;;1.88;100.00
12664;BME280;6396;58.490;15.528;2023-04-07T06:50:51;101185.06;;;-3.42;100.00
12664;BME280;6396;58.490;15.528;2023-04-07T06:53:51;101252.91;;;-3.44;100.00
12664;BME280;6396;58.490;15.528;2023-04-07T06:56:43;101155.97;;;-3.82;100.00
12664;BME280;6396;58.490;15.528;2023-04-07T06:59:36;101141.16;;;-3.19;100.00
12664;BME280;6396;58.490;15.528;2023-04-07T07:02:24;102054.94;;;2.08;100.00
12664;BME280;6396;58.490;15.528;2023-04-07T07:04:53;101860.31;;;0.90;100.00
12664;BME280;6396;58.490;15.528;2023-04-07T07:07:25;101567.19;;;-1.74;100.00
12664;BME280;6396;58.490;15.528;2023-04-07T07:10:08;101698.72;;;-0.52;100.00
12664;BME280;6396;58.490;15.528;2023-04-07T07:15:42;101978.38;;;1.75;100.00
12664;BME280;6396;58.490;15.528;2023-04-07T07:18:10;102089.44;;;2.28;100.00
12664;BME280;6396;58.490;15.528;2023-04-07T07:28:18;102074.03;;;2.36;100.00
12664;BME280;6396;58.490;15.528;2023-04-07T07:30:59;101287.44;;;-2.76;100.00
12664;BME280;6396;58.490;15.528;2023-04-07T07:33:29;101643.44;;;-0.01;100.00
12664;BME280;6396;58.490;15.528;2023-04-07T07:53:16;101497.09;;;-1.09;100.00
12664;BME280;6396;58.490;15.528;2023-04-07T07:55:44;102165.81;;;2.82;100.00
12664;BME280;6396;58.490;15.528;2023-04-07T07:58:11;102112.09;;;2.87;100.00
12664;BME280;6396;58.490;15.528;2023-04-07T08:00:44;101557.69;;;-0.04;100.00
12664;BME280;6396;58.490;15.528;2023-04-07T08:03:12;102102.63;;;2.90;100.00
12664;BME280;6396;58.490;15.528;2023-04-07T08:05:48;102117.56;;;2.96;100.00
12664;BME280;6396;58.490;15.528;2023-04-07T08:08:20;102078.66;;;3.03;100.00
12664;BME280;6396;58.490;15.528;2023-04-07T08:10:48;101598.44;;;-0.53;100.00
12664;BME280;6396;58.490;15.528;2023-04-07T08:13:15;101347.75;;;-1.84;100.00
12664;BME280;6396;58.490;15.528;2023-04-07T08:15:52;101429.81;;;-1.31;100.00
12664;BME280;6396;58.490;15.528;2023-04-07T08:18:46;101302.81;;;-2.09;100.00
12664;BME280;6396;58.490;15.528;2023-04-07T08:21:20;101574.94;;;0.23;100.00
12664;BME280;6396;58.490;15.528;2023-04-07T08:24:31;101544.53;;;-0.61;100.00
12664;BME280;6396;58.490;15.528;2023-04-07T08:27:06;101666.56;;;0.73;100.00
12664;BME280;6396;58.490;15.528;2023-04-07T08:29:33;101377.56;;;-1.20;100.00
12664;BME280;6396;58.490;15.528;2023-04-07T08:32:02;102111.69;;;3.34;100.00
12664;BME280;6396;58.490;15.528;2023-04-07T08:34:31;102139.66;;;3.39;100.00
12664;BME280;6396;58.490;15.528;2023-04-07T08:36:58;101292.91;;;-1.21;100.00
12664;BME280;6396;58.490;15.528;2023-04-07T08:39:40;102112.81;;;3.43;100.00
12664;BME280;6396;58.490;15.528;2023-04-07T08:42:09;101601.94;;;0.56;100.00
12664;BME280;6396;58.490;15.528;2023-04-07T08:44:39;101768.97;;;1.06;100.00
12664;BME280;6396;58.490;15.528;2023-04-07T08:47:07;101152.00;;;-2.34;100.00
12664;BME280;6396;58.490;15.528;2023-04-07T08:49:38;101357.97;;;-1.12;100.00
12664;BME280;6396;58.490;15.528;2023-04-07T08:52:09;101541.34;;;0.00;100.00
12664;BME280;6396;58.490;15.528;2023-04-07T08:54:39;101375.38;;;-0.54;100.00
12664;BME280;6396;58.490;15.528;2023-04-07T08:57:07;102117.00;;;3.70;100.00
12664;BME280;6396;58.490;15.528;2023-04-07T08:59:35;101955.78;;;2.62;100.00
12664;BME280;6396;58.490;15.528;2023-04-07T09:02:05;102135.63;;;3.83;100.00
12664;BME280;6396;58.490;15.528;2023-04-07T09:04:32;102018.22;;;3.19;100.00
12664;BME280;6396;58.490;15.528;2023-04-07T09:07:00;101742.31;;;1.13;100.00
12664;BME280;6396;58.490;15.528;2023-04-07T09:09:28;101428.09;;;-0.54;100.00
12664;BME280;6396;58.490;15.528;2023-04-07T09:11:57;101714.53;;;1.12;100.00
12664;BME280;6396;58.490;15.528;2023-04-07T09:14:24;101202.31;;;-1.47;100.00
12664;BME280;6396;58.490;15.528;2023-04-07T09:16:53;101342.31;;;-0.61;100.00
12664;BME280;6396;58.490;15.528;2023-04-07T09:19:22;101771.56;;;1.35;100.00
12664;BME280;6396;58.490;15.528;2023-04-07T09:21:55;101321.03;;;-0.78;100.00
12664;BME280;6396;58.490;15.528;2023-04-07T09:24:25;101418.78;;;-0.47;100.00
12664;BME280;6396;58.490;15.528;2023-04-07T09:27:15;101734.94;;;0.99;100.00
12664;BME280;6396;58.490;15.528;2023-04-07T09:29:43;101372.44;;;-0.65;100.00
12664;BME280;6396;58.490;15.528;2023-04-07T09:32:11;101872.28;;;2.59;100.00
12664;BME280;6396;58.490;15.528;2023-04-07T09:34:39;101767.34;;;2.00;100.00
12664;BME280;6396;58.490;15.528;2023-04-07T09:37:07;101681.88;;;1.22;100.00
12664;BME280;6396;58.490;15.528;2023-04-07T09:39:51;101879.53;;;2.70;100.00
12664;BME280;6396;58.490;15.528;2023-04-07T09:42:20;102187.00;;;4.17;100.00
12664;BME280;6396;58.490;15.528;2023-04-07T09:44:47;102213.28;;;4.21;100.00
12664;BME280;6396;58.490;15.528;2023-04-07T09:47:14;101495.50;;;0.59;100.00
12664;BME280;6396;58.490;15.528;2023-04-07T09:49:49;101848.22;;;2.69;100.00
12664;BME280;6396;58.490;15.528;2023-04-07T09:52:18;101649.81;;;1.54;100.00
12664;BME280;6396;58.490;15.528;2023-04-07T09:54:47;101802.09;;;2.01;100.00
12664;BME280;6396;58.490;15.528;2023-04-07T09:57:14;101882.47;;;2.50;100.00
12664;BME280;6396;58.490;15.528;2023-04-07T09:59:49;101415.38;;;0.12;100.00
12664;BME280;6396;58.490;15.528;2023-04-07T10:02:17;101835.75;;;2.57;100.00
12664;BME280;6396;58.490;15.528;2023-04-07T10:04:44;102150.78;;;3.96;100.00
12664;BME280;6396;58.490;15.528;2023-04-07T10:07:14;102142.28;;;4.40;100.00
12664;BME280;6396;58.490;15.528;2023-04-07T10:09:42;101600.78;;;1.05;100.00
12664;BME280;6396;58.490;15.528;2023-04-07T10:12:09;102040.72;;;3.83;100.00
12664;BME280;6396;58.490;15.528;2023-04-07T10:14:52;101802.34;;;2.77;100.00
12664;BME280;6396;58.490;15.528;2023-04-07T10:17:20;101736.97;;;2.34;100.00
12664;BME280;6396;58.490;15.528;2023-04-07T10:19:49;101866.94;;;3.22;100.00
12664;BME280;6396;58.490;15.528;2023-04-07T10:22:19;101339.38;;;-0.14;100.00
12664;BME280;6396;58.490;15.528;2023-04-07T10:24:52;101646.03;;;2.08;100.00
12664;BME280;6396;58.490;15.528;2023-04-07T10:27:29;101502.44;;;0.60;100.00
12664;BME280;6396;58.490;15.528;2023-04-07T10:30:00;102200.88;;;4.86;100.00
12664;BME280;6396;58.490;15.528;2023-04-07T10:32:45;101686.94;;;2.12;100.00
12664;BME280;6396;58.490;15.528;2023-04-07T10:35:12;101713.78;;;2.44;100.00
12664;BME280;6396;58.490;15.528;2023-04-07T10:37:38;101483.34;;;0.89;100.00
12664;BME280;6396;58.490;15.528;2023-04-07T10:40:32;102146.91;;;4.91;100.00
12664;BME280;6396;58.490;15.528;2023-04-07T10:43:00;102140.88;;;4.93;100.00
12664;BME280;6396;58.490;15.528;2023-04-07T10:45:59;102147.94;;;4.99;100.00
12664;BME280;6396;58.490;15.528;2023-04-07T10:48:31;101739.41;;;2.27;100.00
12664;BME280;6396;58.490;15.528;2023-04-07T10:51:30;101602.72;;;1.78;100.00
12664;BME280;6396;58.490;15.528;2023-04-07T10:54:21;101447.00;;;0.28;100.00
12664;BME280;6396;58.490;15.528;2023-04-07T10:57:13;101324.94;;;0.28;100.00
12664;BME280;6396;58.490;15.528;2023-04-07T11:02:37;102149.94;;;5.10;100.00
12664;BME280;6396;58.490;15.528;2023-04-07T11:05:29;102150.91;;;5.14;100.00
12664;BME280;6396;58.490;15.528;2023-04-07T11:08:03;101493.41;;;1.44;100.00
12664;BME280;6396;58.490;15.528;2023-04-07T11:10:33;102002.38;;;4.20;100.00
12664;BME280;6396;58.490;15.528;2023-04-07T11:13:05;101415.38;;;1.06;100.00
12664;BME280;6396;58.490;15.528;2023-04-07T11:15:34;101874.22;;;3.35;100.00
12664;BME280;6396;58.490;15.528;2023-04-07T11:18:11;101778.75;;;3.08;100.00
12664;BME280;6396;58.490;15.528;2023-04-07T11:20:43;101791.84;;;3.09;100.00
12664;BME280;6396;58.490;15.528;2023-04-07T11:23:11;102185.19;;;5.26;100.00
12664;BME280;6396;58.490;15.528;2023-04-07T11:25:38;101949.25;;;3.81;100.00
12664;BME280;6396;58.490;15.528;2023-04-07T11:28:08;101891.00;;;3.85;100.00
12664;BME280;6396;58.490;15.528;2023-04-07T11:30:35;101994.47;;;4.16;100.00
12664;BME280;6396;58.490;15.528;2023-04-07T11:33:03;102196.28;;;5.56;100.00
12664;BME280;6396;58.490;15.528;2023-04-07T11:35:32;102164.94;;;5.62;100.00
12664;BME280;6396;58.490;15.528;2023-04-07T11:37:59;102155.16;;;5.52;100.00
12664;BME280;6396;58.490;15.528;2023-04-07T11:40:30;101464.09;;;1.15;100.00
12664;BME280;6396;58.490;15.528;2023-04-07T11:42:58;102127.56;;;5.24;100.00
12664;BME280;6396;58.490;15.528;2023-04-07T11:45:25;101878.88;;;3.89;100.00
12664;BME280;6396;58.490;15.528;2023-04-07T11:47:52;102309.19;;;5.68;100.00
12664;BME280;6396;58.490;15.528;2023-04-07T11:50:39;102026.41;;;4.85;100.00
12664;BME280;6396;58.490;15.528;2023-04-07T11:53:07;101328.06;;;0.80;100.00
12664;BME280;6396;58.490;15.528;2023-04-07T11:55:34;101453.03;;;1.59;100.00
12664;BME280;6396;58.490;15.528;2023-04-07T11:58:05;101471.16;;;1.55;100.00
12664;BME280;6396;58.490;15.528;2023-04-07T12:00:34;102086.84;;;5.41;100.00
12664;BME280;6396;58.490;15.528;2023-04-07T12:03:08;101900.09;;;4.45;100.00
12664;BME280;6396;58.490;15.528;2023-04-07T12:05:45;101847.22;;;4.15;100.00
12664;BME280;6396;58.490;15.528;2023-04-07T12:08:13;101781.16;;;3.79;100.00
12664;BME280;6396;58.490;15.528;2023-04-07T12:10:40;101534.78;;;2.42;100.00
12664;BME280;6396;58.490;15.528;2023-04-07T12:13:07;101791.06;;;3.95;100.00
12664;BME280;6396;58.490;15.528;2023-04-07T12:15:34;101985.03;;;4.66;100.00
12664;BME280;6396;58.490;15.528;2023-04-07T12:18:02;101914.34;;;4.61;100.00
12664;BME280;6396;58.490;15.528;2023-04-07T12:20:29;101920.78;;;4.80;100.00
12664;BME280;6396;58.490;15.528;2023-04-07T12:22:57;101708.31;;;3.48;100.00
12664;BME280;6396;58.490;15.528;2023-04-07T12:25:25;101891.81;;;4.71;100.00
12664;BME280;6396;58.490;15.528;2023-04-07T12:27:52;102229.94;;;6.24;100.00
12664;BME280;6396;58.490;15.528;2023-04-07T12:30:18;101899.03;;;4.82;100.00
12664;BME280;6396;58.490;15.528;2023-04-07T12:32:48;101892.88;;;4.80;100.00
12664;BME280;6396;58.490;15.528;2023-04-07T12:35:15;102091.22;;;5.90;100.00
12664;BME280;6396;58.490;15.528;2023-04-07T12:37:42;102045.50;;;5.73;100.00
12664;BME280;6396;58.490;15.528;2023-04-07T12:40:11;102170.66;;;6.37;100.00
12664;BME280;6396;58.490;15.528;2023-04-07T12:42:38;101836.81;;;4.65;100.00
12664;BME280;6396;58.490;15.528;2023-04-07T12:45:08;102231.16;;;6.46;100.00
12664;BME280;6396;58.490;15.528;2023-04-07T12:47:35;101334.00;;;1.91;100.00
12664;BME280;6396;58.490;15.528;2023-04-07T12:50:02;102142.06;;;6.52;100.00
12664;BME280;6396;58.490;15.528;2023-04-07T12:52:29;102065.00;;;5.89;100.00
12664;BME280;6396;58.490;15.528;2023-04-07T12:54:57;101675.75;;;3.74;100.00
12664;BME280;6396;58.490;15.528;2023-04-07T12:57:25;101848.38;;;4.77;100.00
12664;BME280;6396;58.490;15.528;2023-04-07T12:59:53;101949.38;;;5.18;100.00
12664;BME280;6396;58.490;15.528;2023-04-07T13:02:20;102149.06;;;6.53;100.00
12664;BME280;6396;58.490;15.528;2023-04-07T13:04:46;101928.25;;;5.06;100.00
12664;BME280;6396;58.490;15.528;2023-04-07T13:07:13;102119.97;;;6.36;100.00
12664;BME280;6396;58.490;15.528;2023-04-07T13:09:41;101498.41;;;2.91;100.00
12664;BME280;6396;58.490;15.528;2023-04-07T13:12:08;101718.03;;;4.01;100.00
12664;BME280;6396;58.490;15.528;2023-04-07T13:14:38;102157.09;;;6.63;100.00
12664;BME280;6396;58.490;15.528;2023-04-07T13:17:05;102165.03;;;6.68;100.00
12664;BME280;6396;58.490;15.528;2023-04-07T13:19:32;102151.44;;;6.36;100.00
12664;BME280;6396;58.490;15.528;2023-04-07T13:21:59;102086.56;;;6.26;100.00
12664;BME280;6396;58.490;15.528;2023-04-07T13:24:27;101862.16;;;4.69;100.00
12664;BME280;6396;58.490;15.528;2023-04-07T13:26:54;102097.75;;;6.15;100.00
12664;BME280;6396;58.490;15.528;2023-04-07T13:29:22;101684.56;;;3.81;100.00
12664;BME280;6396;58.490;15.528;2023-04-07T13:31:50;102261.09;;;6.58;100.00
12664;BME280;6396;58.490;15.528;2023-04-07T13:34:17;101917.88;;;5.12;100.00
12664;BME280;6396;58.490;15.528;2023-04-07T13:36:44;101946.81;;;5.21;100.00
12664;BME280;6396;58.490;15.528;2023-04-07T13:39:11;101893.13;;;4.94;100.00
12664;BME280;6396;58.490;15.528;2023-04-07T13:41:37;101724.91;;;3.96;100.00
12664;BME280;6396;58.490;15.528;2023-04-07T13:44:04;101967.91;;;5.29;100.00
12664;BME280;6396;58.490;15.528;2023-04-07T13:46:34;101907.63;;;5.24;100.00
12664;BME280;6396;58.490;15.528;2023-04-07T13:49:02;101947.53;;;5.13;100.00
12664;BME280;6396;58.490;15.528;2023-04-07T13:51:29;102113.97;;;6.45;100.00